Time;durP1;ratioP1;P1;durP2;ratioP2;P2;SDS_P1;SDS_P2;PMS_P1;PMS_P2;Temp;Humidity;BMP_temperature;BMP_pressure;BME280_temperature;BME280_humidity;BME280_pressure;Samples;Min_cycle;Max_cycle;Signal;HPM_P1;HPM_P2
2023/12/20 00:01:36;;;;;;;5.00;0.97;;;;;;;;;;5015045;28;20448;-83
2023/12/20 00:04:03;;;;;;;11.70;1.70;;;;;;;;;;5013733;28;20521;-84
2023/12/20 00:06:29;;;;;;;10.63;1.17;;;;;;;;;;5014954;28;20482;-84
2023/12/20 00:08:55;;;;;;;6.37;0.90;;;;;;;;;;5014935;28;20530;-85
2023/12/20 00:11:21;;;;;;;6.27;0.37;;;;;;;;;;5013241;28;20995;-84
2023/12/20 00:13:47;;;;;;;9.83;1.00;;;;;;;;;;5014631;28;20918;-84
2023/12/20 00:16:13;;;;;;;6.83;1.17;;;;;;;;;;5014775;28;20423;-84
2023/12/20 00:18:39;;;;;;;10.20;1.07;;;;;;;;;;5014741;28;20420;-84
2023/12/20 00:21:07;;;;;;;11.70;1.60;;;;;;;;;;5013444;28;20417;-83
2023/12/20 00:23:33;;;;;;;10.53;1.60;;;;;;;;;;5014618;28;20903;-83
2023/12/20 00:25:59;;;;;;;9.27;1.13;;;;;;;;;;5014246;28;20482;-83
2023/12/20 00:28:25;;;;;;;8.70;0.70;;;;;;;;;;5014535;28;20411;-83
2023/12/20 00:30:51;;;;;;;11.53;1.37;;;;;;;;;;5014496;28;20948;-83
2023/12/20 00:33:17;;;;;;;5.90;1.20;;;;;;;;;;5014327;28;20447;-84
2023/12/20 00:35:43;;;;;;;10.90;0.60;;;;;;;;;;5013276;28;20428;-82
2023/12/20 00:38:09;;;;;;;5.90;0.80;;;;;;;;;;4985165;28;20444;-84
2023/12/20 00:40:35;;;;;;;8.13;0.97;;;;;;;;;;4983563;28;20427;-84
2023/12/20 00:43:01;;;;;;;8.03;1.17;;;;;;;;;;5013582;28;20431;-83
2023/12/20 00:45:27;;;;;;;15.60;1.33;;;;;;;;;;5014141;28;20756;-85
2023/12/20 00:47:53;;;;;;;7.60;1.23;;;;;;;;;;5012896;28;20480;-85
2023/12/20 00:50:21;;;;;;;11.73;0.93;;;;;;;;;;5013922;28;20579;-83
2023/12/20 00:52:47;;;;;;;5.73;0.80;;;;;;;;;;5014025;28;20435;-83
2023/12/20 00:55:13;;;;;;;15.47;1.03;;;;;;;;;;5013874;28;20412;-83
2023/12/20 00:57:39;;;;;;;8.60;1.20;;;;;;;;;;5012956;28;20412;-85
2023/12/20 01:00:05;;;;;;;13.77;1.17;;;;;;;;;;5013964;28;20469;-85
2023/12/20 01:02:31;;;;;;;4.60;0.93;;;;;;;;;;5013876;28;20426;-85
2023/12/20 01:04:57;;;;;;;12.47;1.33;;;;;;;;;;5012552;28;20419;-85
2023/12/20 01:07:23;;;;;;;6.03;0.57;;;;;;;;;;5013826;28;20530;-83
2023/12/20 01:09:49;;;;;;;10.53;0.83;;;;;;;;;;5013775;28;20772;-84
2023/12/20 01:12:15;;;;;;;7.20;0.57;;;;;;;;;;5013554;28;20240;-83
2023/12/20 01:14:41;;;;;;;5.50;0.50;;;;;;;;;;5012511;28;20774;-84
2023/12/20 01:17:08;;;;;;;7.10;0.30;;;;;;;;;;5013736;28;20784;-83
2023/12/20 01:19:34;;;;;;;8.33;1.03;;;;;;;;;;5012383;28;20420;-83
2023/12/20 01:22:00;;;;;;;10.37;1.27;;;;;;;;;;5012271;28;20477;-84
2023/12/20 01:24:29;;;;;;;5.13;1.00;;;;;;;;;;5013412;28;20509;-84
2023/12/20 01:26:58;;;;;;;6.83;0.67;;;;;;;;;;5013069;28;20524;-85
2023/12/20 01:29:24;;;;;;;8.13;0.87;;;;;;;;;;5011969;28;20470;-83
2023/12/20 01:31:50;;;;;;;10.13;0.97;;;;;;;;;;5013343;28;20421;-84
2023/12/20 01:34:19;;;;;;;12.00;1.20;;;;;;;;;;5012030;28;20465;-83
2023/12/20 01:36:44;;;;;;;12.80;1.03;;;;;;;;;;5012057;28;20427;-82
2023/12/20 01:39:10;;;;;;;9.47;0.77;;;;;;;;;;5013400;28;20411;-84
2023/12/20 01:41:36;;;;;;;8.70;1.23;;;;;;;;;;5012984;28;20907;-84
2023/12/20 01:44:02;;;;;;;7.60;1.10;;;;;;;;;;5013280;28;20513;-86
2023/12/20 01:46:28;;;;;;;13.83;1.20;;;;;;;;;;5013262;28;20463;-83
2023/12/20 01:48:54;;;;;;;6.87;0.83;;;;;;;;;;5013125;28;20758;-85
2023/12/20 01:51:20;;;;;;;8.10;1.33;;;;;;;;;;5012871;28;20771;-83
2023/12/20 01:53:47;;;;;;;4.50;0.60;;;;;;;;;;5013175;28;20958;-83
2023/12/20 01:56:13;;;;;;;10.23;1.07;;;;;;;;;;5012773;28;20421;-83
2023/12/20 01:58:42;;;;;;;7.53;0.90;;;;;;;;;;5011801;28;20931;-82
2023/12/20 02:01:08;;;;;;;7.57;1.20;;;;;;;;;;5012236;28;20881;-83
2023/12/20 02:03:36;;;;;;;8.83;1.17;;;;;;;;;;5012749;28;20431;-84
2023/12/20 02:06:02;;;;;;;9.23;1.40;;;;;;;;;;5011521;28;20534;-81
2023/12/20 02:08:28;;;;;;;8.67;1.10;;;;;;;;;;5010147;28;20428;-82
2023/12/20 02:10:54;;;;;;;10.13;0.90;;;;;;;;;;5011382;28;20783;-82
2023/12/20 02:13:20;;;;;;;8.40;1.37;;;;;;;;;;5013127;28;20535;-82
2023/12/20 02:15:46;;;;;;;10.30;1.73;;;;;;;;;;5011963;28;20414;-84
2023/12/20 02:18:15;;;;;;;10.00;1.30;;;;;;;;;;5012009;28;20422;-82
2023/12/20 02:20:41;;;;;;;10.00;2.07;;;;;;;;;;5012871;28;20420;-83
2023/12/20 02:23:07;;;;;;;8.50;1.50;;;;;;;;;;5013169;28;20767;-83
2023/12/20 02:25:33;;;;;;;12.30;1.87;;;;;;;;;;5011445;28;20416;-82
2023/12/20 02:27:59;;;;;;;5.50;0.87;;;;;;;;;;5013198;28;20418;-82
2023/12/20 02:30:25;;;;;;;7.77;1.43;;;;;;;;;;5011814;28;20449;-82
2023/12/20 02:32:51;;;;;;;9.40;2.20;;;;;;;;;;5013000;28;20825;-82
2023/12/20 02:35:17;;;;;;;8.60;1.00;;;;;;;;;;5012911;28;20985;-83
2023/12/20 02:37:43;;;;;;;8.33;1.47;;;;;;;;;;5011825;28;20468;-83
2023/12/20 02:40:10;;;;;;;10.47;0.83;;;;;;;;;;4971838;28;20433;-84
2023/12/20 02:42:37;;;;;;;8.50;1.27;;;;;;;;;;4995239;28;20946;-82
2023/12/20 02:45:03;;;;;;;6.70;1.27;;;;;;;;;;5012969;28;20414;-81
2023/12/20 02:47:29;;;;;;;12.27;1.27;;;;;;;;;;5012843;28;20483;-82
2023/12/20 02:49:56;;;;;;;6.90;1.07;;;;;;;;;;5012992;28;20497;-82
2023/12/20 02:52:22;;;;;;;10.13;1.53;;;;;;;;;;5012938;28;20426;-81
2023/12/20 02:54:48;;;;;;;9.63;1.50;;;;;;;;;;5012790;28;20402;-83
2023/12/20 02:57:14;;;;;;;7.13;1.33;;;;;;;;;;4995356;28;20786;-85
2023/12/20 02:59:43;;;;;;;10.50;1.63;;;;;;;;;;4995400;28;20179;-85
2023/12/20 03:02:09;;;;;;;6.67;1.70;;;;;;;;;;4995213;28;20456;-81
2023/12/20 03:04:35;;;;;;;9.90;1.30;;;;;;;;;;5012886;28;20856;-84
2023/12/20 03:07:00;;;;;;;11.60;2.13;;;;;;;;;;5012722;28;20481;-85
2023/12/20 03:09:26;;;;;;;6.10;1.03;;;;;;;;;;5012794;28;20441;-80
2023/12/20 03:11:52;;;;;;;8.13;1.50;;;;;;;;;;5012445;28;20838;-81
2023/12/20 03:14:18;;;;;;;3.60;0.70;;;;;;;;;;4996563;28;20417;-80
2023/12/20 03:16:50;;;;;;;6.70;1.67;;;;;;;;;;5016403;28;20422;-81
2023/12/20 03:19:17;;;;;;;7.67;1.43;;;;;;;;;;5016319;28;20416;-81
2023/12/20 03:21:46;;;;;;;6.87;1.50;;;;;;;;;;4998610;28;20430;-82
2023/12/20 03:24:12;;;;;;;9.83;1.40;;;;;;;;;;5015790;28;20449;-82
2023/12/20 03:26:38;;;;;;;13.43;3.27;;;;;;;;;;5015177;28;20475;-82
2023/12/20 03:29:04;;;;;;;9.40;1.47;;;;;;;;;;5015439;28;20409;-83
2023/12/20 03:31:30;;;;;;;10.80;1.17;;;;;;;;;;4998339;28;20435;-83
2023/12/20 03:33:55;;;;;;;4.40;1.00;;;;;;;;;;5015920;28;20468;-84
2023/12/20 03:36:21;;;;;;;5.93;1.07;;;;;;;;;;5015870;28;20654;-81
2023/12/20 03:38:47;;;;;;;9.47;2.70;;;;;;;;;;5015945;28;20230;-82
2023/12/20 03:41:13;;;;;;;6.57;0.83;;;;;;;;;;4997919;28;20934;-84
2023/12/20 03:43:39;;;;;;;8.43;1.07;;;;;;;;;;5015843;28;20445;-82
2023/12/20 03:46:05;;;;;;;8.00;1.87;;;;;;;;;;5015792;28;20961;-83
2023/12/20 03:48:31;;;;;;;7.77;1.27;;;;;;;;;;5015757;28;20499;-81
2023/12/20 03:50:57;;;;;;;4.83;1.23;;;;;;;;;;5015741;28;20465;-82
2023/12/20 03:53:23;;;;;;;13.67;1.67;;;;;;;;;;4998061;28;20430;-83
2023/12/20 03:55:49;;;;;;;4.97;0.53;;;;;;;;;;5015251;28;20786;-82
2023/12/20 03:58:15;;;;;;;7.10;0.97;;;;;;;;;;5015556;28;20418;-82
2023/12/20 04:00:44;;;;;;;13.20;1.67;;;;;;;;;;4997913;28;20171;-85
2023/12/20 04:03:13;;;;;;;5.80;1.23;;;;;;;;;;5015542;28;20419;-80
2023/12/20 04:05:39;;;;;;;9.80;1.03;;;;;;;;;;5015542;28;20414;-81
2023/12/20 04:08:11;;;;;;;8.20;1.20;;;;;;;;;;5015685;28;20534;-80
2023/12/20 04:10:40;;;;;;;8.43;0.70;;;;;;;;;;5015073;28;20407;-81
2023/12/20 04:13:06;;;;;;;7.97;1.03;;;;;;;;;;5015416;28;20418;-83
2023/12/20 04:15:38;;;;;;;5.70;1.23;;;;;;;;;;5015587;28;20415;-84
2023/12/20 04:18:07;;;;;;;7.83;1.40;;;;;;;;;;5015231;28;20431;-84
2023/12/20 04:20:33;;;;;;;11.00;1.60;;;;;;;;;;5015350;28;20505;-82
2023/12/20 04:22:59;;;;;;;13.73;3.20;;;;;;;;;;5015204;28;20461;-83
2023/12/20 04:25:25;;;;;;;9.50;2.43;;;;;;;;;;5014106;28;20461;-82
2023/12/20 04:27:54;;;;;;;6.33;1.23;;;;;;;;;;5014881;28;20482;-82
2023/12/20 04:30:20;;;;;;;12.00;1.80;;;;;;;;;;5014812;28;20502;-82
2023/12/20 04:32:45;;;;;;;5.63;1.63;;;;;;;;;;5014876;28;20446;-82
2023/12/20 04:35:11;;;;;;;7.30;2.43;;;;;;;;;;4976629;28;20505;-82
2023/12/20 04:37:37;;;;;;;13.27;3.00;;;;;;;;;;4975718;28;20428;-80
2023/12/20 04:40:05;;;;;;;11.10;3.43;;;;;;;;;;4990338;28;20416;-81
2023/12/20 04:42:31;;;;;;;13.80;2.07;;;;;;;;;;4975625;28;20455;-82
2023/12/20 04:45:00;;;;;;;9.43;3.00;;;;;;;;;;4990552;28;20815;-82
2023/12/20 04:47:26;;;;;;;10.10;2.80;;;;;;;;;;4990457;28;21099;-83
2023/12/20 04:49:52;;;;;;;10.23;2.43;;;;;;;;;;4975457;28;20418;-83
2023/12/20 04:52:18;;;;;;;12.23;2.30;;;;;;;;;;4990453;28;20465;-83
2023/12/20 04:54:43;;;;;;;8.10;2.97;;;;;;;;;;4990069;28;20555;-82
2023/12/20 04:57:09;;;;;;;8.27;2.80;;;;;;;;;;4975436;28;20997;-83
2023/12/20 04:59:35;;;;;;;8.13;2.50;;;;;;;;;;4975334;28;20505;-83
2023/12/20 05:02:01;;;;;;;11.30;1.93;;;;;;;;;;4975381;28;20515;-85
2023/12/20 05:04:27;;;;;;;12.73;2.17;;;;;;;;;;4975273;28;20905;-82
2023/12/20 05:06:53;;;;;;;10.50;2.63;;;;;;;;;;4975195;28;20575;-84
2023/12/20 05:09:19;;;;;;;17.30;2.87;;;;;;;;;;4975131;28;20418;-83
2023/12/20 05:11:45;;;;;;;8.00;2.50;;;;;;;;;;4974892;28;20428;-83
2023/12/20 05:14:11;;;;;;;6.93;1.70;;;;;;;;;;4975235;28;20437;-84
2023/12/20 05:16:37;;;;;;;8.83;3.30;;;;;;;;;;4990039;28;20430;-84
2023/12/20 05:19:06;;;;;;;7.10;2.13;;;;;;;;;;4975073;28;20186;-84
2023/12/20 05:21:33;;;;;;;6.53;3.20;;;;;;;;;;4990002;28;20195;-85
2023/12/20 05:23:59;;;;;;;13.03;3.60;;;;;;;;;;4974993;28;20501;-84
2023/12/20 05:26:25;;;;;;;11.77;2.60;;;;;;;;;;4989484;28;20504;-84
2023/12/20 05:28:50;;;;;;;11.47;3.10;;;;;;;;;;4989847;28;20957;-83
2023/12/20 05:31:16;;;;;;;8.00;2.77;;;;;;;;;;4989850;28;20420;-83
2023/12/20 05:33:42;;;;;;;11.83;2.90;;;;;;;;;;4985470;28;20897;-82
2023/12/20 05:36:11;;;;;;;13.53;3.80;;;;;;;;;;4995614;28;21002;-83
2023/12/20 05:38:37;;;;;;;12.80;3.00;;;;;;;;;;5013567;28;20882;-84
2023/12/20 05:41:03;;;;;;;13.40;3.97;;;;;;;;;;4982520;28;20534;-81
2023/12/20 05:43:29;;;;;;;12.57;3.53;;;;;;;;;;5005734;28;20434;-82
2023/12/20 05:45:55;;;;;;;7.40;3.10;;;;;;;;;;5013574;28;20408;-83
2023/12/20 05:48:21;;;;;;;12.70;3.90;;;;;;;;;;5013581;28;20911;-84
2023/12/20 05:50:47;;;;;;;10.33;2.97;;;;;;;;;;5013599;28;20473;-81
2023/12/20 05:53:13;;;;;;;11.03;3.30;;;;;;;;;;5013569;28;20860;-82
2023/12/20 05:55:39;;;;;;;10.87;2.73;;;;;;;;;;4995616;28;20430;-82
2023/12/20 05:58:05;;;;;;;9.97;2.80;;;;;;;;;;5013488;28;20436;-84
2023/12/20 06:00:31;;;;;;;7.90;1.90;;;;;;;;;;5013436;28;20412;-82
2023/12/20 06:02:56;;;;;;;6.63;3.33;;;;;;;;;;4995951;28;20950;-82
2023/12/20 06:05:22;;;;;;;5.63;2.07;;;;;;;;;;5013309;28;20415;-82
2023/12/20 06:07:50;;;;;;;9.90;2.00;;;;;;;;;;5013175;28;20482;-82
2023/12/20 06:10:16;;;;;;;14.37;2.80;;;;;;;;;;5012881;28;20503;-82
2023/12/20 06:12:42;;;;;;;6.80;2.20;;;;;;;;;;5013201;28;20458;-84
2023/12/20 06:15:08;;;;;;;11.33;2.93;;;;;;;;;;5013261;28;20916;-81
2023/12/20 06:17:34;;;;;;;15.87;3.63;;;;;;;;;;5013278;28;20911;-83
2023/12/20 06:20:01;;;;;;;11.03;3.37;;;;;;;;;;5013137;28;20907;-82
2023/12/20 06:22:27;;;;;;;13.03;3.20;;;;;;;;;;5013055;28;20502;-83
2023/12/20 06:24:52;;;;;;;13.67;3.20;;;;;;;;;;5012752;28;20911;-83
2023/12/20 06:27:18;;;;;;;4.70;2.03;;;;;;;;;;5012929;28;21009;-83
2023/12/20 06:29:44;;;;;;;8.90;2.37;;;;;;;;;;5013005;28;20904;-82
2023/12/20 06:32:10;;;;;;;9.83;2.40;;;;;;;;;;4995274;28;20413;-83
2023/12/20 06:34:37;;;;;;;6.70;1.37;;;;;;;;;;5013017;28;20542;-82
2023/12/20 06:37:05;;;;;;;9.83;2.07;;;;;;;;;;5013158;28;20414;-80
2023/12/20 06:39:31;;;;;;;10.20;2.10;;;;;;;;;;5012936;28;20418;-81
2023/12/20 06:42:00;;;;;;;6.83;1.60;;;;;;;;;;5013356;28;20777;-82
2023/12/20 06:44:26;;;;;;;5.73;2.50;;;;;;;;;;4995220;28;20459;-81
2023/12/20 06:46:56;;;;;;;9.30;1.70;;;;;;;;;;5012077;28;20477;-82
2023/12/20 06:49:25;;;;;;;6.00;1.63;;;;;;;;;;5006302;28;20912;-83
2023/12/20 06:51:51;;;;;;;5.50;1.70;;;;;;;;;;5036513;28;20414;-83
2023/12/20 06:54:17;;;;;;;8.50;2.47;;;;;;;;;;5036326;28;20799;-83
2023/12/20 06:56:43;;;;;;;7.73;2.00;;;;;;;;;;5036503;28;20773;-82
2023/12/20 06:59:09;;;;;;;9.77;1.10;;;;;;;;;;5036637;28;20896;-84
2023/12/20 07:01:37;;;;;;;4.50;1.40;;;;;;;;;;5036361;28;20502;-84
2023/12/20 07:04:06;;;;;;;9.63;1.30;;;;;;;;;;5036517;28;20410;-85
2023/12/20 07:06:32;;;;;;;7.33;1.27;;;;;;;;;;5018584;28;20479;-81
2023/12/20 07:08:58;;;;;;;11.23;1.70;;;;;;;;;;5018984;28;20410;-82
2023/12/20 07:11:26;;;;;;;11.63;1.53;;;;;;;;;;5018240;28;20786;-83
2023/12/20 07:13:54;;;;;;;5.60;1.33;;;;;;;;;;5036501;28;20433;-82
2023/12/20 07:16:20;;;;;;;13.40;2.17;;;;;;;;;;5036320;28;21097;-82
2023/12/20 07:18:47;;;;;;;10.00;1.27;;;;;;;;;;5036194;28;20895;-80
2023/12/20 07:21:12;;;;;;;8.83;1.50;;;;;;;;;;5036115;28;21025;-81
2023/12/20 07:23:38;;;;;;;15.30;2.50;;;;;;;;;;5035974;28;20446;-84
2023/12/20 07:26:04;;;;;;;7.17;2.90;;;;;;;;;;5035538;28;20508;-81
2023/12/20 07:28:30;;;;;;;9.33;2.60;;;;;;;;;;5036047;28;20413;-81
2023/12/20 07:30:56;;;;;;;6.70;2.07;;;;;;;;;;5036080;28;20401;-81
2023/12/20 07:33:25;;;;;;;7.93;1.43;;;;;;;;;;5018642;28;20498;-82
2023/12/20 07:35:51;;;;;;;17.37;2.93;;;;;;;;;;5036338;28;20449;-80
2023/12/20 07:38:17;;;;;;;7.77;1.53;;;;;;;;;;5018468;28;20418;-81
2023/12/20 07:40:43;;;;;;;12.50;2.83;;;;;;;;;;5035561;28;20891;-82
2023/12/20 07:43:09;;;;;;;18.17;3.10;;;;;;;;;;5018293;28;20409;-81
2023/12/20 07:45:35;;;;;;;12.47;1.63;;;;;;;;;;5036077;28;20966;-81
2023/12/20 07:48:08;;;;;;;13.13;3.60;;;;;;;;;;5035795;28;20484;-81
2023/12/20 07:50:34;;;;;;;7.50;1.53;;;;;;;;;;5035692;28;20416;-81
2023/12/20 07:53:00;;;;;;;9.33;2.77;;;;;;;;;;5035562;28;20492;-81
2023/12/20 07:55:26;;;;;;;12.83;2.10;;;;;;;;;;5035080;28;20761;-84
2023/12/20 07:57:52;;;;;;;9.67;2.00;;;;;;;;;;5017647;28;20497;-81
2023/12/20 08:00:19;;;;;;;11.60;3.60;;;;;;;;;;5034582;28;20410;-80
2023/12/20 08:02:45;;;;;;;10.50;2.20;;;;;;;;;;5035358;28;20440;-81
2023/12/20 08:05:11;;;;;;;11.60;2.33;;;;;;;;;;5035384;28;20523;-82
2023/12/20 08:07:37;;;;;;;8.70;2.10;;;;;;;;;;5035003;28;20473;-83
2023/12/20 08:10:03;;;;;;;9.93;2.20;;;;;;;;;;5034698;28;20411;-83
2023/12/20 08:12:29;;;;;;;11.40;2.77;;;;;;;;;;5035121;28;20509;-83
2023/12/20 08:14:56;;;;;;;9.03;1.83;;;;;;;;;;5034982;28;20443;-82
2023/12/20 08:17:23;;;;;;;9.80;2.50;;;;;;;;;;5034985;28;20418;-82
2023/12/20 08:19:49;;;;;;;9.00;3.40;;;;;;;;;;5034998;28;20411;-82
2023/12/20 08:22:15;;;;;;;10.33;3.63;;;;;;;;;;5034940;28;20500;-82
2023/12/20 08:24:41;;;;;;;9.03;2.93;;;;;;;;;;5034400;28;20511;-82
2023/12/20 08:27:07;;;;;;;10.63;3.10;;;;;;;;;;5034703;28;20473;-83
2023/12/20 08:29:33;;;;;;;13.73;3.00;;;;;;;;;;5034723;28;20466;-82
2023/12/20 08:32:00;;;;;;;8.63;4.17;;;;;;;;;;5034720;28;20482;-84
2023/12/20 08:34:26;;;;;;;10.48;2.78;;;;;;;;;;5016267;28;20453;-82
2023/12/20 08:36:52;;;;;;;11.73;3.50;;;;;;;;;;5034726;28;20181;-83
2023/12/20 08:39:18;;;;;;;7.10;1.90;;;;;;;;;;5016495;28;20419;-82
2023/12/20 08:41:43;;;;;;;18.47;2.50;;;;;;;;;;5034489;28;20427;-82
2023/12/20 08:44:10;;;;;;;7.13;1.83;;;;;;;;;;4981675;28;20789;-82
2023/12/20 08:46:36;;;;;;;10.37;1.80;;;;;;;;;;5014475;28;20965;-83
2023/12/20 08:49:02;;;;;;;17.10;2.70;;;;;;;;;;5014568;28;20479;-83
2023/12/20 08:51:29;;;;;;;12.63;1.70;;;;;;;;;;5014645;28;20432;-84
2023/12/20 08:53:55;;;;;;;8.20;1.57;;;;;;;;;;5014220;28;20408;-83
2023/12/20 08:56:21;;;;;;;8.87;1.27;;;;;;;;;;5014578;28;20510;-83
2023/12/20 08:58:47;;;;;;;11.97;2.30;;;;;;;;;;4996957;28;20510;-83
2023/12/20 09:01:13;;;;;;;10.90;1.57;;;;;;;;;;5014476;28;20979;-83
2023/12/20 09:03:39;;;;;;;10.90;1.60;;;;;;;;;;4996853;28;20420;-83
2023/12/20 09:06:05;;;;;;;5.63;1.67;;;;;;;;;;4996587;28;20424;-82
2023/12/20 09:08:31;;;;;;;11.17;1.60;;;;;;;;;;5014213;28;20420;-83
2023/12/20 09:10:57;;;;;;;9.73;2.17;;;;;;;;;;4996245;28;20916;-83
2023/12/20 09:13:31;;;;;;;5.00;1.43;;;;;;;;;;5014202;28;20421;-82
2023/12/20 09:15:57;;;;;;;6.40;1.70;;;;;;;;;;5014219;28;20467;-82
2023/12/20 09:18:23;;;;;;;10.33;0.80;;;;;;;;;;5014262;28;20826;-82
2023/12/20 09:20:50;;;;;;;7.77;0.87;;;;;;;;;;5014311;28;20415;-83
2023/12/20 09:23:31;;;;;;;10.97;1.33;;;;;;;;;;5014175;28;20423;-84
2023/12/20 09:26:02;;;;;;;6.53;1.40;;;;;;;;;;5013694;28;20428;-84
2023/12/20 09:28:28;;;;;;;4.27;0.73;;;;;;;;;;5014295;28;20429;-83
2023/12/20 09:30:54;;;;;;;3.43;0.27;;;;;;;;;;5014056;28;20416;-83
2023/12/20 09:33:20;;;;;;;6.17;0.60;;;;;;;;;;4996323;28;20467;-81
2023/12/20 09:35:50;;;;;;;2.40;0.43;;;;;;;;;;5014153;28;20500;-85
2023/12/20 09:38:22;;;;;;;3.53;0.33;;;;;;;;;;5013943;28;20423;-82
2023/12/20 09:40:48;;;;;;;4.00;0.20;;;;;;;;;;5013447;28;20419;-82
2023/12/20 09:43:16;;;;;;;5.03;1.40;;;;;;;;;;5008233;28;20422;-82
2023/12/20 09:45:42;;;;;;;3.03;0.50;;;;;;;;;;5009744;28;20458;-85
2023/12/20 09:48:10;;;;;;;3.83;0.40;;;;;;;;;;5013219;28;20474;-83
2023/12/20 09:50:36;;;;;;;2.67;0.27;;;;;;;;;;5013367;28;20452;-83
2023/12/20 09:53:04;;;;;;;4.80;0.30;;;;;;;;;;5013279;28;20414;-82
2023/12/20 09:55:31;;;;;;;0.73;0.20;;;;;;;;;;5013402;28;20410;-81
2023/12/20 09:57:57;;;;;;;3.83;0.30;;;;;;;;;;5013738;28;20499;-79
2023/12/20 10:00:23;;;;;;;2.93;0.40;;;;;;;;;;5013486;28;20469;-84
2023/12/20 10:02:49;;;;;;;1.03;0.30;;;;;;;;;;4996192;28;20426;-80
2023/12/20 10:05:20;;;;;;;1.27;0.20;;;;;;;;;;5013545;28;20511;-80
2023/12/20 10:07:46;;;;;;;3.73;0.73;;;;;;;;;;4995925;28;20489;-81
2023/12/20 10:10:13;;;;;;;0.50;0.20;;;;;;;;;;5013171;28;20499;-81
2023/12/20 10:12:39;;;;;;;1.07;0.20;;;;;;;;;;5013240;28;21007;-83
2023/12/20 10:15:06;;;;;;;1.43;0.20;;;;;;;;;;5013321;28;20507;-84
2023/12/20 10:17:32;;;;;;;3.40;0.40;;;;;;;;;;5013270;28;20438;-87
2023/12/20 10:19:58;;;;;;;2.10;0.20;;;;;;;;;;5013390;28;20413;-85
2023/12/20 10:22:25;;;;;;;2.87;0.30;;;;;;;;;;4996438;28;20438;-81
2023/12/20 10:24:51;;;;;;;0.97;0.20;;;;;;;;;;5001860;28;20427;-84
2023/12/20 10:27:19;;;;;;;0.50;0.20;;;;;;;;;;5019692;28;20524;-86
2023/12/20 10:29:45;;;;;;;1.03;0.20;;;;;;;;;;5020463;28;20409;-85
2023/12/20 10:32:27;;;;;;;1.30;0.33;;;;;;;;;;5019652;28;20412;-81
2023/12/20 10:34:54;;;;;;;0.87;0.20;;;;;;;;;;5019408;28;20972;-81
2023/12/20 10:37:20;;;;;;;2.57;0.20;;;;;;;;;;5019704;28;20760;-82
2023/12/20 10:39:51;;;;;;;1.83;0.20;;;;;;;;;;5019284;28;20416;-83
2023/12/20 10:42:17;;;;;;;1.90;0.20;;;;;;;;;;5019691;28;20397;-81
2023/12/20 10:44:43;;;;;;;3.73;0.30;;;;;;;;;;5019403;28;20914;-82
2023/12/20 10:47:10;;;;;;;5.47;0.93;;;;;;;;;;5019425;28;20481;-81
2023/12/20 10:49:36;;;;;;;1.37;0.27;;;;;;;;;;5019510;28;20417;-82
2023/12/20 10:52:04;;;;;;;2.27;0.20;;;;;;;;;;5019363;28;20873;-82
2023/12/20 10:54:30;;;;;;;2.10;0.30;;;;;;;;;;5019091;28;20434;-82
2023/12/20 10:56:58;;;;;;;1.90;0.20;;;;;;;;;;5019389;28;20414;-80
2023/12/20 10:59:24;;;;;;;5.17;0.40;;;;;;;;;;4979041;28;20518;-81
2023/12/20 11:01:51;;;;;;;7.23;0.77;;;;;;;;;;5019290;28;20410;-82
2023/12/20 11:04:21;;;;;;;4.37;0.20;;;;;;;;;;5019085;28;20507;-82
2023/12/20 11:06:52;;;;;;;3.03;0.20;;;;;;;;;;5001389;28;20507;-83
2023/12/20 11:09:25;;;;;;;3.77;0.30;;;;;;;;;;5015916;28;20923;-86
2023/12/20 11:11:57;;;;;;;3.40;0.30;;;;;;;;;;5019386;28;20419;-81
2023/12/20 11:14:25;;;;;;;4.27;0.30;;;;;;;;;;5001723;28;20488;-82
2023/12/20 11:16:51;;;;;;;2.60;0.30;;;;;;;;;;5002140;28;20425;-80
2023/12/20 11:19:17;;;;;;;2.43;0.67;;;;;;;;;;5019756;28;20752;-81
2023/12/20 11:21:43;;;;;;;3.80;0.43;;;;;;;;;;5019831;28;20480;-80
2023/12/20 11:24:10;;;;;;;2.60;0.23;;;;;;;;;;5019452;28;20410;-81
2023/12/20 11:26:36;;;;;;;2.70;0.20;;;;;;;;;;5001871;28;20478;-79
2023/12/20 11:29:21;;;;;;;4.27;0.90;;;;;;;;;;5019697;28;20416;-79
2023/12/20 11:31:47;;;;;;;4.57;0.30;;;;;;;;;;5011965;28;20514;-80
2023/12/20 11:34:14;;;;;;;3.07;0.57;;;;;;;;;;5016926;28;20516;-80
2023/12/20 11:36:40;;;;;;;3.30;0.33;;;;;;;;;;5015731;28;20479;-79
2023/12/20 11:39:08;;;;;;;3.43;0.40;;;;;;;;;;5015595;28;20424;-82
2023/12/20 11:41:34;;;;;;;1.73;0.40;;;;;;;;;;5015988;28;20435;-80
2023/12/20 11:44:01;;;;;;;3.63;0.87;;;;;;;;;;5016196;28;20419;-80
2023/12/20 11:46:27;;;;;;;10.33;1.20;;;;;;;;;;4998492;28;20468;-80
2023/12/20 11:48:53;;;;;;;4.23;0.43;;;;;;;;;;5015850;28;20420;-80
2023/12/20 11:51:19;;;;;;;6.30;0.30;;;;;;;;;;4998557;28;20419;-82
2023/12/20 11:53:45;;;;;;;7.10;0.40;;;;;;;;;;5015271;28;20905;-81
2023/12/20 11:56:12;;;;;;;6.93;0.97;;;;;;;;;;4998042;28;21028;-81
2023/12/20 11:58:38;;;;;;;8.00;1.60;;;;;;;;;;5015587;28;20430;-83
2023/12/20 12:01:04;;;;;;;6.07;0.60;;;;;;;;;;4975552;28;20470;-81
2023/12/20 12:03:30;;;;;;;7.47;0.37;;;;;;;;;;5010814;28;20428;-84
2023/12/20 12:05:56;;;;;;;10.63;1.50;;;;;;;;;;5014765;28;20932;-83
2023/12/20 12:08:22;;;;;;;6.57;0.73;;;;;;;;;;5014610;28;20417;-83
2023/12/20 12:10:48;;;;;;;10.93;1.13;;;;;;;;;;5013711;28;20966;-80
2023/12/20 12:13:16;;;;;;;3.50;0.43;;;;;;;;;;5015310;28;20524;-79
2023/12/20 12:15:44;;;;;;;9.47;0.93;;;;;;;;;;5014802;28;20415;-82
2023/12/20 12:18:10;;;;;;;11.10;1.30;;;;;;;;;;5014931;28;20474;-84
2023/12/20 12:20:36;;;;;;;5.33;1.77;;;;;;;;;;5014460;28;20427;-80
2023/12/20 12:23:03;;;;;;;7.50;0.67;;;;;;;;;;5014969;28;20558;-81
2023/12/20 12:25:30;;;;;;;10.60;1.00;;;;;;;;;;5013394;28;20429;-82
2023/12/20 12:27:56;;;;;;;11.03;1.43;;;;;;;;;;5014661;28;20477;-85
2023/12/20 12:30:23;;;;;;;2.80;0.50;;;;;;;;;;5014916;28;20765;-79
2023/12/20 12:32:49;;;;;;;7.90;1.50;;;;;;;;;;5014141;28;20423;-80
2023/12/20 12:35:15;;;;;;;3.57;0.63;;;;;;;;;;5013939;28;20460;-81
2023/12/20 12:37:41;;;;;;;7.10;0.77;;;;;;;;;;4996891;28;20508;-81
2023/12/20 12:40:13;;;;;;;7.23;0.90;;;;;;;;;;4997530;28;20417;-86
2023/12/20 12:42:39;;;;;;;8.30;1.20;;;;;;;;;;5015911;28;20415;-85
2023/12/20 12:45:05;;;;;;;9.13;0.60;;;;;;;;;;5015126;28;20414;-84
2023/12/20 12:47:31;;;;;;;5.40;1.00;;;;;;;;;;5014703;28;20994;-84
2023/12/20 12:49:57;;;;;;;12.43;1.10;;;;;;;;;;4997811;28;20456;-81
2023/12/20 12:52:23;;;;;;;3.80;0.50;;;;;;;;;;5015115;28;20478;-81
2023/12/20 12:54:50;;;;;;;5.30;0.80;;;;;;;;;;5014701;28;20504;-80
2023/12/20 12:57:17;;;;;;;5.60;1.03;;;;;;;;;;5014434;28;20430;-81
2023/12/20 12:59:45;;;;;;;5.17;0.87;;;;;;;;;;5014161;28;20939;-81
2023/12/20 13:02:11;;;;;;;9.07;1.10;;;;;;;;;;5013588;28;20758;-82
2023/12/20 13:04:37;;;;;;;6.00;0.73;;;;;;;;;;4955133;28;20444;-82
2023/12/20 13:07:03;;;;;;;4.13;0.50;;;;;;;;;;5013486;28;20477;-85
2023/12/20 13:09:29;;;;;;;7.40;1.90;;;;;;;;;;5013683;28;20522;-85
2023/12/20 13:11:55;;;;;;;5.20;1.17;;;;;;;;;;5014209;28;20447;-84
2023/12/20 13:14:21;;;;;;;6.67;0.63;;;;;;;;;;5014298;28;20424;-87
2023/12/20 13:16:47;;;;;;;5.77;0.70;;;;;;;;;;5014244;28;20415;-84
2023/12/20 13:19:13;;;;;;;8.87;0.90;;;;;;;;;;5014255;28;20409;-86
2023/12/20 13:21:39;;;;;;;5.70;1.20;;;;;;;;;;5014305;28;20431;-83
2023/12/20 13:24:05;;;;;;;10.37;1.47;;;;;;;;;;5013864;28;20405;-85
2023/12/20 13:26:32;;;;;;;8.77;1.27;;;;;;;;;;5014166;28;20822;-84
2023/12/20 13:28:58;;;;;;;8.27;1.17;;;;;;;;;;5013876;28;20469;-82
2023/12/20 13:31:24;;;;;;;9.57;1.60;;;;;;;;;;5014963;28;20817;-82
2023/12/20 13:33:52;;;;;;;5.40;1.07;;;;;;;;;;4996209;28;21038;-83
2023/12/20 13:36:18;;;;;;;8.80;1.10;;;;;;;;;;4997090;28;20424;-82
2023/12/20 13:38:44;;;;;;;7.43;0.93;;;;;;;;;;5014274;28;20413;-83
2023/12/20 13:41:10;;;;;;;12.17;1.53;;;;;;;;;;5015438;28;20926;-86
2023/12/20 13:43:36;;;;;;;8.07;1.40;;;;;;;;;;4997059;28;20416;-84
2023/12/20 13:46:02;;;;;;;8.80;1.20;;;;;;;;;;5013963;28;20910;-87
2023/12/20 13:48:28;;;;;;;17.80;2.23;;;;;;;;;;5013797;28;20466;-81
2023/12/20 13:50:54;;;;;;;7.87;1.60;;;;;;;;;;5013837;28;20737;-80
2023/12/20 13:53:20;;;;;;;11.57;2.10;;;;;;;;;;5013671;28;20928;-81
2023/12/20 13:55:46;;;;;;;11.17;2.07;;;;;;;;;;5014495;28;20419;-85
2023/12/20 13:58:12;;;;;;;12.63;3.07;;;;;;;;;;5013981;28;20440;-85
2023/12/20 14:00:39;;;;;;;12.50;2.07;;;;;;;;;;5014944;28;20440;-87
2023/12/20 14:03:06;;;;;;;10.17;1.93;;;;;;;;;;4989315;28;21316;-83
2023/12/20 14:05:33;;;;;;;14.70;3.10;;;;;;;;;;5000208;28;20503;-81
2023/12/20 14:07:59;;;;;;;14.60;1.57;;;;;;;;;;5013069;28;20570;-82
2023/12/20 14:10:26;;;;;;;14.20;1.83;;;;;;;;;;4996256;28;20427;-82
2023/12/20 14:12:52;;;;;;;11.47;2.10;;;;;;;;;;4996172;28;20424;-81
2023/12/20 14:15:18;;;;;;;10.73;2.67;;;;;;;;;;4996196;28;20477;-84
2023/12/20 14:17:44;;;;;;;19.03;3.23;;;;;;;;;;5014118;28;20427;-81
2023/12/20 14:20:12;;;;;;;12.23;2.20;;;;;;;;;;5014292;28;20411;-83
2023/12/20 14:22:43;;;;;;;15.90;4.00;;;;;;;;;;5014146;28;20507;-81
2023/12/20 14:25:12;;;;;;;14.33;2.67;;;;;;;;;;5013367;28;20464;-83
2023/12/20 14:27:37;;;;;;;9.47;1.90;;;;;;;;;;5011761;28;20482;-80
2023/12/20 14:30:04;;;;;;;13.40;2.73;;;;;;;;;;5012033;28;20963;-81
2023/12/20 14:32:29;;;;;;;9.27;1.17;;;;;;;;;;5013060;28;20406;-83
2023/12/20 14:34:55;;;;;;;9.73;3.93;;;;;;;;;;5013193;28;20895;-83